createdAt,value
2022-12-08T17:47:41.811Z,94657.03
2022-12-08T17:50:11.997Z,94650.78
2022-12-08T17:52:41.846Z,94647.94
2022-12-08T17:55:12.219Z,94647.13
2022-12-08T17:57:42.436Z,94654.06
2022-12-08T18:00:14.326Z,94650.28
2022-12-08T18:02:45.479Z,94656.19
2022-12-08T18:05:16.882Z,94660.25
2022-12-08T18:07:46.542Z,94663.31
2022-12-08T18:10:16.842Z,94663.16
2022-12-08T18:12:46.995Z,94662.13
2022-12-08T18:15:21.527Z,94663.75
2022-12-08T18:17:53.088Z,94653.59
2022-12-08T18:20:22.921Z,94664.09
2022-12-08T18:22:52.762Z,94668.13
2022-12-08T18:25:22.774Z,94654.94
2022-12-08T18:27:55.468Z,94648.44
2022-12-08T18:30:26.366Z,94648.19
2022-12-08T18:32:57.698Z,94645.34
2022-12-08T18:35:28.694Z,94641.69
2022-12-08T18:37:58.445Z,94635.59
2022-12-08T18:40:28.703Z,94639.25
2022-12-08T18:42:58.696Z,94639.25
2022-12-08T18:45:28.242Z,94634.25
2022-12-08T18:47:59.308Z,94632.16
2022-12-08T18:50:29.612Z,94626.69
2022-12-08T18:52:59.203Z,94633.94
2022-12-08T18:55:29.031Z,94630.50
2022-12-08T18:58:14.433Z,94640.88
2022-12-08T19:00:44.301Z,94651.88
2022-12-08T19:03:15.366Z,94637.09
2022-12-08T19:05:45.131Z,94645.81
2022-12-08T19:08:14.795Z,94648.66
2022-12-08T19:10:44.543Z,94640.38
2022-12-08T19:13:14.183Z,94637.75
2022-12-08T19:15:43.995Z,94648.34
2022-12-08T19:18:14.899Z,94652.03
2022-12-08T19:20:44.621Z,94653.31
2022-12-08T19:23:15.230Z,94648.47
2022-12-08T19:25:44.949Z,94648.06
2022-12-08T19:28:14.504Z,94652.16
2022-12-08T19:30:44.316Z,94648.31
2022-12-08T19:33:15.341Z,94651.38
2022-12-08T19:35:49.053Z,94648.78
2022-12-08T19:38:21.961Z,94652.28
2022-12-08T19:41:08.971Z,94644.19
2022-12-08T19:43:56.006Z,94643.78
2022-12-08T19:46:26.146Z,94640.97
2022-12-08T19:48:58.344Z,94635.91
2022-12-08T19:51:28.552Z,94641.81
2022-12-08T19:53:58.092Z,94646.31
2022-12-08T19:56:27.634Z,94641.88
2022-12-08T19:58:57.149Z,94644.94
2022-12-08T20:01:27.111Z,94645.56
2022-12-08T20:03:58.174Z,94632.59
2022-12-08T20:06:28.607Z,94629.75
2022-12-08T20:08:58.252Z,94621.88
2022-12-08T20:11:27.788Z,94631.00
2022-12-08T20:13:57.483Z,94628.78
2022-12-08T20:16:27.088Z,94629.78
2022-12-08T20:18:58.059Z,94635.50
2022-12-08T20:21:27.664Z,94624.97
2022-12-08T20:23:57.565Z,94630.44
2022-12-08T20:26:27.129Z,94634.09
2022-12-08T20:28:56.644Z,94633.28
2022-12-08T20:31:30.296Z,94630.44
2022-12-08T20:34:02.141Z,94632.25
2022-12-08T20:36:32.285Z,94618.09
2022-12-08T20:39:01.801Z,94628.41
2022-12-08T20:41:36.134Z,94612.22
2022-12-08T20:44:08.673Z,94619.31
2022-12-08T20:46:39.165Z,94616.09
2022-12-08T20:49:10.244Z,94618.53
2022-12-08T20:51:40.048Z,94616.53
2022-12-08T20:54:10.612Z,94615.56
2022-12-08T20:56:48.099Z,94622.63
2022-12-08T20:59:18.690Z,94611.72
2022-12-08T21:01:48.478Z,94617.16
2022-12-08T21:04:19.892Z,94614.91
2022-12-08T21:06:49.969Z,94614.91
2022-12-08T21:09:19.719Z,94609.28
2022-12-08T21:11:49.306Z,94612.53
2022-12-08T21:14:19.150Z,94602.63
2022-12-08T21:16:49.871Z,94604.25
2022-12-08T21:19:21.724Z,94605.06
2022-12-08T21:21:51.636Z,94607.50
2022-12-08T21:24:21.336Z,94600.25
2022-12-08T21:26:51.022Z,94599.44
2022-12-08T21:29:20.554Z,94593.38
2022-12-08T21:31:50.263Z,94602.47
2022-12-08T21:34:21.248Z,94604.09
2022-12-08T21:36:50.799Z,94608.56
2022-12-08T21:39:20.429Z,94614.22
2022-12-08T21:42:07.475Z,94616.44
2022-12-08T21:44:37.257Z,94613.25
2022-12-08T21:47:07.524Z,94617.88
2022-12-08T21:49:38.507Z,94621.31
2022-12-08T21:52:08.205Z,94617.28
2022-12-08T21:54:38.142Z,94617.50
2022-12-08T21:57:07.820Z,94615.88
2022-12-08T21:59:37.470Z,94609.59
2022-12-08T22:02:08.353Z,94616.69
2022-12-08T22:04:40.201Z,94623.34
2022-12-08T22:07:11.153Z,94614.66
2022-12-08T22:09:40.768Z,94617.28
2022-12-08T22:12:11.854Z,94621.53
2022-12-08T22:14:41.579Z,94615.06
2022-12-08T22:17:11.425Z,94612.44
2022-12-08T22:19:42.694Z,94614.81
2022-12-08T22:22:12.472Z,94607.13
2022-12-08T22:24:42.060Z,94604.72
2022-12-08T22:27:11.657Z,94599.03
2022-12-08T22:29:41.460Z,94604.28
2022-12-08T22:32:11.585Z,94613.75
2022-12-08T22:34:42.838Z,94604.66
2022-12-08T22:37:12.583Z,94607.28
2022-12-08T22:39:42.161Z,94603.44
2022-12-08T22:42:11.925Z,94594.72
2022-12-08T22:44:41.544Z,94589.41
2022-12-08T22:47:11.542Z,94594.44
2022-12-08T22:49:42.699Z,94584.91
2022-12-08T22:52:12.455Z,94586.72
2022-12-08T22:54:41.971Z,94581.59
2022-12-08T22:57:11.700Z,94575.91
2022-12-08T22:59:41.419Z,94588.25
2022-12-08T23:02:11.634Z,94580.31
2022-12-08T23:04:42.723Z,94572.38
2022-12-08T23:07:12.608Z,94574.38
2022-12-08T23:09:42.223Z,94577.59
2022-12-08T23:12:11.763Z,94566.00
2022-12-08T23:14:41.488Z,94565.38
2022-12-08T23:17:11.785Z,94566.56
2022-12-08T23:19:43.152Z,94559.66
2022-12-08T23:22:12.680Z,94545.00
2022-12-08T23:24:42.795Z,94565.03
2022-12-08T23:27:12.396Z,94566.22
2022-12-08T23:29:42.194Z,94554.22
2022-12-08T23:32:11.821Z,94545.09
2022-12-08T23:34:42.743Z,94543.41
2022-12-08T23:37:12.255Z,94547.22
2022-12-08T23:39:41.846Z,94541.69
2022-12-08T23:42:11.681Z,94537.81
2022-12-08T23:44:41.488Z,94547.91
2022-12-08T23:47:11.121Z,94549.91
2022-12-08T23:49:42.247Z,94557.59
2022-12-08T23:52:13.891Z,94541.56
2022-12-08T23:54:44.444Z,94537.91
2022-12-08T23:57:14.044Z,94537.44
2022-12-08T23:59:43.669Z,94538.63
